sensor_id;sensor_type;location;lat;lon;timestamp;pressure;altitude;pressure_sealevel;temperature;humidity
5753;BME280;2901;42.140;24.760;2023-03-12T00:02:14;98387.06;;;8.25;87.94
5753;BME280;2901;42.140;24.760;2023-03-12T00:04:39;98403.34;;;8.32;83.71
5753;BME280;2901;42.140;24.760;2023-03-12T00:07:05;98404.03;;;8.42;80.61
5753;BME280;2901;42.140;24.760;2023-03-12T00:09:35;98405.66;;;8.49;79.23
5753;BME280;2901;42.140;24.760;2023-03-12T00:12:00;98404.75;;;8.53;81.89
5753;BME280;2901;42.140;24.760;2023-03-12T00:14:26;98406.63;;;8.42;85.59
5753;BME280;2901;42.140;24.760;2023-03-12T00:16:51;98405.06;;;8.31;86.94
5753;BME280;2901;42.140;24.760;2023-03-12T00:19:17;98395.66;;;8.24;87.69
5753;BME280;2901;42.140;24.760;2023-03-12T00:21:42;98400.03;;;8.21;86.62
5753;BME280;2901;42.140;24.760;2023-03-12T00:24:07;98412.94;;;8.19;84.98
5753;BME280;2901;42.140;24.760;2023-03-12T00:26:33;98406.03;;;8.21;82.36
5753;BME280;2901;42.140;24.760;2023-03-12T00:28:58;98407.66;;;8.27;79.08
5753;BME280;2901;42.140;24.760;2023-03-12T00:31:26;98412.84;;;8.28;81.77
5753;BME280;2901;42.140;24.760;2023-03-12T00:33:53;98427.56;;;8.17;84.55
5753;BME280;2901;42.140;24.760;2023-03-12T00:36:22;98400.31;;;8.03;87.72
5753;BME280;2901;42.140;24.760;2023-03-12T00:38:49;98404.72;;;7.92;87.93
5753;BME280;2901;42.140;24.760;2023-03-12T00:41:15;98400.44;;;7.91;87.00
5753;BME280;2901;42.140;24.760;2023-03-12T00:43:40;98402.19;;;7.90;85.11
5753;BME280;2901;42.140;24.760;2023-03-12T00:46:05;98400.56;;;7.81;86.13
5753;BME280;2901;42.140;24.760;2023-03-12T00:48:31;98400.66;;;7.75;86.91
5753;BME280;2901;42.140;24.760;2023-03-12T00:50:56;98385.28;;;7.68;86.44
5753;BME280;2901;42.140;24.760;2023-03-12T00:53:22;98395.69;;;7.63;86.24
5753;BME280;2901;42.140;24.760;2023-03-12T00:55:47;98391.44;;;7.58;85.97
5753;BME280;2901;42.140;24.760;2023-03-12T00:58:13;98411.19;;;7.59;84.93
5753;BME280;2901;42.140;24.760;2023-03-12T01:00:38;98403.53;;;7.53;83.87
5753;BME280;2901;42.140;24.760;2023-03-12T01:03:03;98402.72;;;7.49;82.79
5753;BME280;2901;42.140;24.760;2023-03-12T01:05:29;98428.47;;;7.49;82.91
5753;BME280;2901;42.140;24.760;2023-03-12T01:07:54;98413.00;;;7.48;82.00
5753;BME280;2901;42.140;24.760;2023-03-12T01:10:20;98425.06;;;7.46;82.35
5753;BME280;2901;42.140;24.760;2023-03-12T01:12:46;98425.97;;;7.42;81.32
5753;BME280;2901;42.140;24.760;2023-03-12T01:15:14;98429.44;;;7.41;80.14
5753;BME280;2901;42.140;24.760;2023-03-12T01:17:40;98413.97;;;7.38;79.38
5753;BME280;2901;42.140;24.760;2023-03-12T01:20:06;98420.91;;;7.34;77.66
5753;BME280;2901;42.140;24.760;2023-03-12T01:22:32;98426.06;;;7.32;77.75
5753;BME280;2901;42.140;24.760;2023-03-12T01:24:58;98426.09;;;7.28;76.43
5753;BME280;2901;42.140;24.760;2023-03-12T01:27:23;98431.28;;;7.26;75.82
5753;BME280;2901;42.140;24.760;2023-03-12T01:29:48;98436.47;;;7.23;74.49
5753;BME280;2901;42.140;24.760;2023-03-12T01:32:14;98427.03;;;7.24;75.50
5753;BME280;2901;42.140;24.760;2023-03-12T01:34:41;98451.91;;;7.23;75.48
5753;BME280;2901;42.140;24.760;2023-03-12T01:37:06;98422.91;;;7.06;75.26
5753;BME280;2901;42.140;24.760;2023-03-12T01:39:32;98453.72;;;7.17;75.54
5753;BME280;2901;42.140;24.760;2023-03-12T01:41:57;98477.03;;;7.00;76.34
5753;BME280;2901;42.140;24.760;2023-03-12T01:44:23;98462.50;;;6.93;76.75
5753;BME280;2901;42.140;24.760;2023-03-12T01:46:48;98469.38;;;6.90;76.47
5753;BME280;2901;42.140;24.760;2023-03-12T01:51:46;98484.00;;;6.86;76.73
5753;BME280;2901;42.140;24.760;2023-03-12T01:54:35;98487.47;;;6.81;75.53
5753;BME280;2901;42.140;24.760;2023-03-12T01:57:04;98501.19;;;6.83;75.15
5753;BME280;2901;42.140;24.760;2023-03-12T01:59:38;98499.47;;;6.78;75.17
5753;BME280;2901;42.140;24.760;2023-03-12T02:02:06;98496.94;;;6.77;74.85
5753;BME280;2901;42.140;24.760;2023-03-12T02:04:33;98524.41;;;6.75;75.04
5753;BME280;2901;42.140;24.760;2023-03-12T02:07:03;98507.28;;;6.71;74.11
5753;BME280;2901;42.140;24.760;2023-03-12T02:09:31;98515.84;;;6.70;74.79
5753;BME280;2901;42.140;24.760;2023-03-12T02:11:57;98515.84;;;6.70;74.66
5753;BME280;2901;42.140;24.760;2023-03-12T02:14:23;98516.75;;;6.63;74.05
5753;BME280;2901;42.140;24.760;2023-03-12T02:16:48;98522.75;;;6.62;74.97
5753;BME280;2901;42.140;24.760;2023-03-12T02:19:44;98539.06;;;6.59;74.59
5753;BME280;2901;42.140;24.760;2023-03-12T02:22:09;98537.38;;;6.57;74.39
5753;BME280;2901;42.140;24.760;2023-03-12T02:24:37;98564.81;;;6.55;75.32
5753;BME280;2901;42.140;24.760;2023-03-12T02:27:04;98545.09;;;6.52;75.14
5753;BME280;2901;42.140;24.760;2023-03-12T02:29:32;98546.84;;;6.46;74.67
5753;BME280;2901;42.140;24.760;2023-03-12T02:31:59;98547.78;;;6.39;75.07
5753;BME280;2901;42.140;24.760;2023-03-12T02:34:26;98550.31;;;6.42;74.67
5753;BME280;2901;42.140;24.760;2023-03-12T02:36:52;98566.59;;;6.41;74.41
5753;BME280;2901;42.140;24.760;2023-03-12T02:39:17;98567.47;;;6.37;74.82
5753;BME280;2901;42.140;24.760;2023-03-12T02:41:50;98562.34;;;6.35;74.39
5753;BME280;2901;42.140;24.760;2023-03-12T02:44:21;98576.91;;;6.35;73.42
5753;BME280;2901;42.140;24.760;2023-03-12T02:46:54;98580.38;;;6.32;74.78
5753;BME280;2901;42.140;24.760;2023-03-12T02:49:22;98578.66;;;6.31;74.36
5753;BME280;2901;42.140;24.760;2023-03-12T02:51:48;98583.78;;;6.30;74.31
5753;BME280;2901;42.140;24.760;2023-03-12T02:54:16;98590.66;;;6.24;74.27
5753;BME280;2901;42.140;24.760;2023-03-12T02:56:41;98591.53;;;6.20;74.77
5753;BME280;2901;42.140;24.760;2023-03-12T02:59:08;98593.25;;;6.21;75.06
5753;BME280;2901;42.140;24.760;2023-03-12T03:01:34;98626.66;;;6.17;74.94
5753;BME280;2901;42.140;24.760;2023-03-12T03:04:00;98598.44;;;6.06;74.75
5753;BME280;2901;42.140;24.760;2023-03-12T03:06:26;98596.75;;;6.05;74.89
5753;BME280;2901;42.140;24.760;2023-03-12T03:08:51;98617.28;;;6.07;74.48
5753;BME280;2901;42.140;24.760;2023-03-12T03:11:17;98613.84;;;6.06;74.63
5753;BME280;2901;42.140;24.760;2023-03-12T03:13:43;98623.28;;;6.01;73.68
5753;BME280;2901;42.140;24.760;2023-03-12T03:16:09;98629.28;;;5.97;74.50
5753;BME280;2901;42.140;24.760;2023-03-12T03:18:36;98637.88;;;5.99;73.52
5753;BME280;2901;42.140;24.760;2023-03-12T03:21:07;98649.84;;;5.97;73.73
5753;BME280;2901;42.140;24.760;2023-03-12T03:23:33;98617.28;;;5.96;73.69
5753;BME280;2901;42.140;24.760;2023-03-12T03:25:59;98630.13;;;5.96;73.32
5753;BME280;2901;42.140;24.760;2023-03-12T03:28:26;98643.88;;;5.92;72.97
5753;BME280;2901;42.140;24.760;2023-03-12T03:30:53;98636.16;;;5.86;73.09
5753;BME280;2901;42.140;24.760;2023-03-12T03:33:22;98639.56;;;5.82;73.46
5753;BME280;2901;42.140;24.760;2023-03-12T03:35:47;98646.41;;;5.83;73.41
5753;BME280;2901;42.140;24.760;2023-03-12T03:38:13;98650.75;;;5.86;73.55
5753;BME280;2901;42.140;24.760;2023-03-12T03:40:38;98655.88;;;5.89;73.04
5753;BME280;2901;42.140;24.760;2023-03-12T03:43:04;98667.00;;;5.89;72.26
5753;BME280;2901;42.140;24.760;2023-03-12T03:45:29;98669.56;;;5.86;72.39
5753;BME280;2901;42.140;24.760;2023-03-12T03:47:54;98672.09;;;5.83;72.29
5753;BME280;2901;42.140;24.760;2023-03-12T03:50:20;98672.09;;;5.82;72.02
5753;BME280;2901;42.140;24.760;2023-03-12T03:52:45;98675.53;;;5.79;71.48
5753;BME280;2901;42.140;24.760;2023-03-12T03:55:11;98681.50;;;5.80;71.62
5753;BME280;2901;42.140;24.760;2023-03-12T03:57:36;98678.09;;;5.82;72.01
5753;BME280;2901;42.140;24.760;2023-03-12T04:00:02;98674.69;;;5.79;70.97
5753;BME280;2901;42.140;24.760;2023-03-12T04:02:30;98678.94;;;5.76;71.07
5753;BME280;2901;42.140;24.760;2023-03-12T04:04:56;98669.53;;;5.74;70.86
5753;BME280;2901;42.140;24.760;2023-03-12T04:07:23;98672.97;;;5.76;70.71
5753;BME280;2901;42.140;24.760;2023-03-12T04:09:48;98692.66;;;5.77;70.28
5753;BME280;2901;42.140;24.760;2023-03-12T04:12:15;98703.78;;;5.79;70.09
5753;BME280;2901;42.140;24.760;2023-03-12T04:14:41;98702.06;;;5.80;69.60
5753;BME280;2901;42.140;24.760;2023-03-12T04:17:07;98708.94;;;5.82;69.98
5753;BME280;2901;42.140;24.760;2023-03-12T04:19:33;98705.50;;;5.79;69.10
5753;BME280;2901;42.140;24.760;2023-03-12T04:21:58;98711.50;;;5.82;69.68
5753;BME280;2901;42.140;24.760;2023-03-12T04:24:24;98725.19;;;5.84;69.38
5753;BME280;2901;42.140;24.760;2023-03-12T04:26:49;98726.03;;;5.80;69.61
5753;BME280;2901;42.140;24.760;2023-03-12T04:29:16;98718.34;;;5.74;69.27
5753;BME280;2901;42.140;24.760;2023-03-12T04:31:42;98715.75;;;5.77;69.41
5753;BME280;2901;42.140;24.760;2023-03-12T04:34:08;98726.91;;;5.81;69.65
5753;BME280;2901;42.140;24.760;2023-03-12T04:36:33;98713.19;;;5.80;69.13
5753;BME280;2901;42.140;24.760;2023-03-12T04:38:59;98711.50;;;5.78;68.87
5753;BME280;2901;42.140;24.760;2023-03-12T04:41:24;98715.78;;;5.75;68.72
5753;BME280;2901;42.140;24.760;2023-03-12T04:43:49;98729.47;;;5.76;69.46
5753;BME280;2901;42.140;24.760;2023-03-12T04:46:15;98728.59;;;5.74;69.07
5753;BME280;2901;42.140;24.760;2023-03-12T04:48:40;98749.16;;;5.74;69.05
5753;BME280;2901;42.140;24.760;2023-03-12T04:51:05;98730.34;;;5.69;68.19
5753;BME280;2901;42.140;24.760;2023-03-12T04:53:31;98745.72;;;5.80;68.08
5753;BME280;2901;42.140;24.760;2023-03-12T04:55:56;98744.91;;;5.82;68.46
5753;BME280;2901;42.140;24.760;2023-03-12T04:58:22;98747.47;;;5.79;68.82
5753;BME280;2901;42.140;24.760;2023-03-12T05:00:48;98756.88;;;5.86;68.14
5753;BME280;2901;42.140;24.760;2023-03-12T05:03:14;98749.16;;;5.79;68.23
5753;BME280;2901;42.140;24.760;2023-03-12T05:05:40;98771.44;;;5.83;68.10
5753;BME280;2901;42.140;24.760;2023-03-12T05:08:05;98773.16;;;5.82;69.01
5753;BME280;2901;42.140;24.760;2023-03-12T05:10:31;98751.75;;;5.75;67.88
5753;BME280;2901;42.140;24.760;2023-03-12T05:12:56;98792.88;;;5.94;67.74
5753;BME280;2901;42.140;24.760;2023-03-12T05:15:22;98785.19;;;5.89;67.77
5753;BME280;2901;42.140;24.760;2023-03-12T05:17:47;98791.16;;;5.94;66.57
5753;BME280;2901;42.140;24.760;2023-03-12T05:20:13;98781.72;;;5.93;66.40
5753;BME280;2901;42.140;24.760;2023-03-12T05:22:38;98808.28;;;5.97;66.16
5753;BME280;2901;42.140;24.760;2023-03-12T05:25:04;98804.88;;;5.99;66.92
5753;BME280;2901;42.140;24.760;2023-03-12T05:27:30;98806.59;;;5.96;66.66
5753;BME280;2901;42.140;24.760;2023-03-12T05:29:56;98800.59;;;5.98;66.69
5753;BME280;2901;42.140;24.760;2023-03-12T05:32:21;98807.44;;;6.01;66.02
5753;BME280;2901;42.140;24.760;2023-03-12T05:34:47;98802.31;;;6.05;66.44
5753;BME280;2901;42.140;24.760;2023-03-12T05:37:12;98798.88;;;6.06;65.89
5753;BME280;2901;42.140;24.760;2023-03-12T05:39:38;98812.59;;;6.11;65.88
5753;BME280;2901;42.140;24.760;2023-03-12T05:42:05;98812.59;;;6.08;66.41
5753;BME280;2901;42.140;24.760;2023-03-12T05:44:30;98821.13;;;6.16;66.77
5753;BME280;2901;42.140;24.760;2023-03-12T05:46:56;98819.44;;;6.24;66.33
5753;BME280;2901;42.140;24.760;2023-03-12T05:49:21;98815.16;;;6.31;65.97
5753;BME280;2901;42.140;24.760;2023-03-12T05:51:47;98829.72;;;6.28;66.29
5753;BME280;2901;42.140;24.760;2023-03-12T05:54:14;98834.00;;;6.25;66.28
5753;BME280;2901;42.140;24.760;2023-03-12T05:56:39;98833.13;;;6.37;65.45
5753;BME280;2901;42.140;24.760;2023-03-12T05:59:05;98840.84;;;6.48;65.03
5753;BME280;2901;42.140;24.760;2023-03-12T06:01:31;98851.13;;;6.51;64.77
5753;BME280;2901;42.140;24.760;2023-03-12T06:03:57;98853.69;;;6.54;65.08
5753;BME280;2901;42.140;24.760;2023-03-12T06:06:23;98850.28;;;6.58;65.38
5753;BME280;2901;42.140;24.760;2023-03-12T06:08:50;98858.81;;;6.63;65.17
5753;BME280;2901;42.140;24.760;2023-03-12T06:11:16;98865.69;;;6.68;64.58
5753;BME280;2901;42.140;24.760;2023-03-12T06:13:41;98878.56;;;6.67;64.70
5753;BME280;2901;42.140;24.760;2023-03-12T06:16:21;98876.00;;;6.64;64.81
5753;BME280;2901;42.140;24.760;2023-03-12T06:18:47;98872.53;;;6.62;64.28
5753;BME280;2901;42.140;24.760;2023-03-12T06:21:18;98885.44;;;6.65;64.35
5753;BME280;2901;42.140;24.760;2023-03-12T06:23:44;98892.28;;;6.67;62.59
5753;BME280;2901;42.140;24.760;2023-03-12T06:26:11;98900.84;;;6.69;62.90
5753;BME280;2901;42.140;24.760;2023-03-12T06:28:36;98901.69;;;6.76;62.53
5753;BME280;2901;42.140;24.760;2023-03-12T06:31:02;98899.97;;;6.81;62.15
5753;BME280;2901;42.140;24.760;2023-03-12T06:33:28;98895.66;;;6.78;61.11
5753;BME280;2901;42.140;24.760;2023-03-12T06:35:59;98893.94;;;6.85;59.93
5753;BME280;2901;42.140;24.760;2023-03-12T06:38:25;98916.25;;;6.91;58.97
5753;BME280;2901;42.140;24.760;2023-03-12T06:40:58;98915.38;;;6.92;56.63
5753;BME280;2901;42.140;24.760;2023-03-12T06:43:25;98917.09;;;7.00;56.88
5753;BME280;2901;42.140;24.760;2023-03-12T06:45:53;98918.78;;;7.09;55.66
5753;BME280;2901;42.140;24.760;2023-03-12T06:48:19;98933.38;;;7.10;53.89
5753;BME280;2901;42.140;24.760;2023-03-12T06:50:44;98936.81;;;7.10;54.12
5753;BME280;2901;42.140;24.760;2023-03-12T06:53:09;98943.69;;;7.14;53.19
5753;BME280;2901;42.140;24.760;2023-03-12T06:55:35;98923.06;;;7.22;52.90
5753;BME280;2901;42.140;24.760;2023-03-12T06:58:01;98936.75;;;7.31;52.29
5753;BME280;2901;42.140;24.760;2023-03-12T07:00:28;98933.31;;;7.42;52.48
5753;BME280;2901;42.140;24.760;2023-03-12T07:02:54;98960.75;;;7.52;51.87
5753;BME280;2901;42.140;24.760;2023-03-12T07:05:19;98964.22;;;7.40;51.83
5753;BME280;2901;42.140;24.760;2023-03-12T07:07:45;98953.06;;;7.40;51.98
5753;BME280;2901;42.140;24.760;2023-03-12T07:10:11;98950.47;;;7.50;50.50
5753;BME280;2901;42.140;24.760;2023-03-12T07:12:36;98961.59;;;7.57;50.42
5753;BME280;2901;42.140;24.760;2023-03-12T07:15:02;98970.09;;;7.74;50.38
5753;BME280;2901;42.140;24.760;2023-03-12T07:17:27;98960.69;;;7.68;49.79
5753;BME280;2901;42.140;24.760;2023-03-12T07:19:52;98980.44;;;7.65;50.24
5753;BME280;2901;42.140;24.760;2023-03-12T07:22:18;98975.28;;;7.77;50.63
5753;BME280;2901;42.140;24.760;2023-03-12T07:24:43;98962.38;;;7.80;50.39
5753;BME280;2901;42.140;24.760;2023-03-12T07:27:09;98961.41;;;8.02;50.42
5753;BME280;2901;42.140;24.760;2023-03-12T07:29:34;98937.34;;;8.06;48.78
5753;BME280;2901;42.140;24.760;2023-03-12T07:31:59;98937.28;;;8.12;47.24
5753;BME280;2901;42.140;24.760;2023-03-12T07:34:25;98947.56;;;8.18;47.53
5753;BME280;2901;42.140;24.760;2023-03-12T07:36:51;99000.00;;;8.22;44.80
5753;BME280;2901;42.140;24.760;2023-03-12T07:39:16;98948.53;;;8.02;46.23
5753;BME280;2901;42.140;24.760;2023-03-12T07:41:42;98952.75;;;8.15;44.58
5753;BME280;2901;42.140;24.760;2023-03-12T07:44:07;98958.75;;;8.14;46.30
5753;BME280;2901;42.140;24.760;2023-03-12T07:46:33;98940.72;;;8.11;45.74
5753;BME280;2901;42.140;24.760;2023-03-12T07:48:58;98971.66;;;8.11;45.35
5753;BME280;2901;42.140;24.760;2023-03-12T07:51:25;98964.78;;;8.16;45.96
5753;BME280;2901;42.140;24.760;2023-03-12T07:53:50;98960.44;;;8.23;44.99
5753;BME280;2901;42.140;24.760;2023-03-12T07:56:15;98946.66;;;8.27;44.62
5753;BME280;2901;42.140;24.760;2023-03-12T07:58:41;98963.88;;;8.28;45.83
5753;BME280;2901;42.140;24.760;2023-03-12T08:01:06;98945.72;;;8.42;46.06
5753;BME280;2901;42.140;24.760;2023-03-12T08:03:32;98955.97;;;8.51;45.69
5753;BME280;2901;42.140;24.760;2023-03-12T08:06:02;98958.63;;;8.46;45.68
5753;BME280;2901;42.140;24.760;2023-03-12T08:08:28;98955.09;;;8.58;45.34
5753;BME280;2901;42.140;24.760;2023-03-12T08:10:55;98973.00;;;8.76;45.34
5753;BME280;2901;42.140;24.760;2023-03-12T08:13:21;98985.81;;;8.88;44.81
5753;BME280;2901;42.140;24.760;2023-03-12T08:15:49;98980.50;;;9.08;45.20
5753;BME280;2901;42.140;24.760;2023-03-12T08:18:14;99001.91;;;9.20;43.71
5753;BME280;2901;42.140;24.760;2023-03-12T08:20:40;99000.13;;;9.27;42.79
5753;BME280;2901;42.140;24.760;2023-03-12T08:23:05;98971.66;;;9.31;43.50
5753;BME280;2901;42.140;24.760;2023-03-12T08:25:30;98973.34;;;9.32;42.54
5753;BME280;2901;42.140;24.760;2023-03-12T08:27:56;98944.06;;;9.35;42.95
5753;BME280;2901;42.140;24.760;2023-03-12T08:30:21;98932.81;;;9.39;41.87
5753;BME280;2901;42.140;24.760;2023-03-12T08:32:47;98931.91;;;9.43;42.07
5753;BME280;2901;42.140;24.760;2023-03-12T08:35:12;98922.50;;;9.37;42.71
5753;BME280;2901;42.140;24.760;2023-03-12T08:37:38;98910.69;;;9.12;43.00
5753;BME280;2901;42.140;24.760;2023-03-12T08:40:03;98926.88;;;9.29;42.40
5753;BME280;2901;42.140;24.760;2023-03-12T08:42:41;98919.03;;;9.38;42.89
5753;BME280;2901;42.140;24.760;2023-03-12T08:45:07;98934.53;;;9.38;42.71
5753;BME280;2901;42.140;24.760;2023-03-12T08:47:33;98946.47;;;9.49;41.84
5753;BME280;2901;42.140;24.760;2023-03-12T08:49:59;98947.22;;;9.58;41.13
5753;BME280;2901;42.140;24.760;2023-03-12T08:52:24;98967.00;;;9.64;40.75
5753;BME280;2901;42.140;24.760;2023-03-12T08:54:49;98965.31;;;9.58;40.89
5753;BME280;2901;42.140;24.760;2023-03-12T08:57:15;98967.88;;;9.64;39.02
5753;BME280;2901;42.140;24.760;2023-03-12T08:59:40;98954.91;;;9.67;36.86
5753;BME280;2901;42.140;24.760;2023-03-12T09:02:06;98974.66;;;9.73;36.08
5753;BME280;2901;42.140;24.760;2023-03-12T09:04:31;98966.88;;;9.73;36.32
5753;BME280;2901;42.140;24.760;2023-03-12T09:06:57;98976.53;;;9.59;36.01
5753;BME280;2901;42.140;24.760;2023-03-12T09:09:24;98997.16;;;9.65;36.27
5753;BME280;2901;42.140;24.760;2023-03-12T09:11:49;98968.72;;;9.62;37.44
5753;BME280;2901;42.140;24.760;2023-03-12T09:14:15;98979.00;;;9.69;37.71
5753;BME280;2901;42.140;24.760;2023-03-12T09:16:40;98967.13;;;9.55;39.44
5753;BME280;2901;42.140;24.760;2023-03-12T09:19:05;98961.72;;;9.73;40.15
5753;BME280;2901;42.140;24.760;2023-03-12T09:21:31;98961.72;;;9.74;39.03
5753;BME280;2901;42.140;24.760;2023-03-12T09:23:56;98953.72;;;9.93;38.44
5753;BME280;2901;42.140;24.760;2023-03-12T09:26:22;98969.34;;;9.83;37.21
5753;BME280;2901;42.140;24.760;2023-03-12T09:28:48;98945.00;;;10.00;37.93
5753;BME280;2901;42.140;24.760;2023-03-12T09:31:14;98952.06;;;9.87;36.94
5753;BME280;2901;42.140;24.760;2023-03-12T09:33:40;98960.81;;;9.75;36.44
5753;BME280;2901;42.140;24.760;2023-03-12T09:36:05;98950.66;;;9.60;38.43
5753;BME280;2901;42.140;24.760;2023-03-12T09:38:30;98979.00;;;9.69;38.53
5753;BME280;2901;42.140;24.760;2023-03-12T09:41:00;98961.84;;;9.64;38.54
5753;BME280;2901;42.140;24.760;2023-03-12T09:43:32;98970.28;;;9.78;38.78
5753;BME280;2901;42.140;24.760;2023-03-12T09:46:01;98993.41;;;9.90;35.96
5753;BME280;2901;42.140;24.760;2023-03-12T09:48:36;98990.03;;;9.83;37.68
5753;BME280;2901;42.140;24.760;2023-03-12T09:51:05;98986.34;;;10.01;38.54
5753;BME280;2901;42.140;24.760;2023-03-12T09:53:36;98990.63;;;10.07;39.15
5753;BME280;2901;42.140;24.760;2023-03-12T09:56:08;98992.88;;;10.32;38.42
5753;BME280;2901;42.140;24.760;2023-03-12T09:58:37;98993.66;;;10.39;37.49
5753;BME280;2901;42.140;24.760;2023-03-12T10:01:34;98999.25;;;10.07;39.08
5753;BME280;2901;42.140;24.760;2023-03-12T10:12:42;98987.72;;;10.32;37.46
5753;BME280;2901;42.140;24.760;2023-03-12T10:20:45;98993.16;;;10.10;38.84
5753;BME280;2901;42.140;24.760;2023-03-12T10:25:57;99002.66;;;10.09;38.92
5753;BME280;2901;42.140;24.760;2023-03-12T10:30:57;99010.81;;;10.46;38.44
5753;BME280;2901;42.140;24.760;2023-03-12T10:33:36;99020.03;;;10.64;39.59
5753;BME280;2901;42.140;24.760;2023-03-12T10:36:15;99015.31;;;10.90;39.49
5753;BME280;2901;42.140;24.760;2023-03-12T10:38:41;99027.94;;;11.13;38.58
5753;BME280;2901;42.140;24.760;2023-03-12T10:41:15;99012.00;;;10.82;38.69
5753;BME280;2901;42.140;24.760;2023-03-12T10:43:41;99016.59;;;10.65;39.02
5753;BME280;2901;42.140;24.760;2023-03-12T10:48:38;99014.84;;;10.65;38.33
5753;BME280;2901;42.140;24.760;2023-03-12T10:51:05;99040.16;;;10.47;40.50
5753;BME280;2901;42.140;24.760;2023-03-12T10:53:32;99007.56;;;10.33;41.09
5753;BME280;2901;42.140;24.760;2023-03-12T10:58:37;99006.22;;;10.65;40.33
5753;BME280;2901;42.140;24.760;2023-03-12T11:01:04;98984.75;;;10.60;40.90
5753;BME280;2901;42.140;24.760;2023-03-12T11:03:30;98988.66;;;10.83;40.30
5753;BME280;2901;42.140;24.760;2023-03-12T11:06:01;98988.94;;;11.20;39.36
5753;BME280;2901;42.140;24.760;2023-03-12T11:08:35;99007.41;;;11.01;38.09
5753;BME280;2901;42.140;24.760;2023-03-12T11:11:02;99013.03;;;10.73;37.86
5753;BME280;2901;42.140;24.760;2023-03-12T11:13:39;99007.03;;;10.68;38.48
5753;BME280;2901;42.140;24.760;2023-03-12T11:18:58;98994.00;;;10.76;38.49
5753;BME280;2901;42.140;24.760;2023-03-12T11:21:33;98988.00;;;10.72;38.88
5753;BME280;2901;42.140;24.760;2023-03-12T11:26:51;98998.59;;;11.11;39.61
5753;BME280;2901;42.140;24.760;2023-03-12T11:29:27;98979.63;;;11.09;39.09
5753;BME280;2901;42.140;24.760;2023-03-12T11:34:52;98987.47;;;11.04;38.93
5753;BME280;2901;42.140;24.760;2023-03-12T11:56:21;98975.53;;;11.44;38.22
5753;BME280;2901;42.140;24.760;2023-03-12T12:15:37;98984.31;;;11.37;35.78
5753;BME280;2901;42.140;24.760;2023-03-12T12:26:27;98986.03;;;11.38;36.92
5753;BME280;2901;42.140;24.760;2023-03-12T12:29:44;98969.38;;;11.52;36.71
5753;BME280;2901;42.140;24.760;2023-03-12T12:32:26;98970.22;;;11.51;36.66
5753;BME280;2901;42.140;24.760;2023-03-12T12:35:02;98966.78;;;11.52;36.87
5753;BME280;2901;42.140;24.760;2023-03-12T12:43:04;98976.25;;;11.99;35.78
5753;BME280;2901;42.140;24.760;2023-03-12T12:45:31;98986.38;;;12.09;35.25
5753;BME280;2901;42.140;24.760;2023-03-12T12:48:06;98986.72;;;11.92;35.48
5753;BME280;2901;42.140;24.760;2023-03-12T12:50:36;99001.28;;;12.01;35.33
5753;BME280;2901;42.140;24.760;2023-03-12T12:55:38;98991.50;;;12.14;34.21
5753;BME280;2901;42.140;24.760;2023-03-12T12:58:14;98968.13;;;12.14;34.06
5753;BME280;2901;42.140;24.760;2023-03-12T13:00:58;98985.03;;;12.33;34.38
5753;BME280;2901;42.140;24.760;2023-03-12T13:03:26;98979.16;;;12.23;32.99
5753;BME280;2901;42.140;24.760;2023-03-12T13:13:41;98993.19;;;12.55;32.74
5753;BME280;2901;42.140;24.760;2023-03-12T13:16:32;98989.78;;;12.53;32.48
5753;BME280;2901;42.140;24.760;2023-03-12T13:19:01;98988.72;;;12.61;33.32
5753;BME280;2901;42.140;24.760;2023-03-12T13:21:38;98985.94;;;12.69;33.13
5753;BME280;2901;42.140;24.760;2023-03-12T13:26:49;98998.06;;;12.68;33.10
5753;BME280;2901;42.140;24.760;2023-03-12T13:29:35;98996.16;;;12.75;33.59
5753;BME280;2901;42.140;24.760;2023-03-12T13:32:02;98993.97;;;12.95;32.77
5753;BME280;2901;42.140;24.760;2023-03-12T13:34:31;98984.16;;;13.06;32.57
5753;BME280;2901;42.140;24.760;2023-03-12T13:36:59;99003.16;;;13.08;32.34
5753;BME280;2901;42.140;24.760;2023-03-12T13:39:30;99008.69;;;12.96;31.97
5753;BME280;2901;42.140;24.760;2023-03-12T13:41:58;99000.97;;;12.91;31.83
5753;BME280;2901;42.140;24.760;2023-03-12T13:47:20;99003.41;;;12.97;31.91
5753;BME280;2901;42.140;24.760;2023-03-12T13:49:55;99017.56;;;12.86;31.60
5753;BME280;2901;42.140;24.760;2023-03-12T13:52:30;99006.50;;;12.78;32.00
5753;BME280;2901;42.140;24.760;2023-03-12T13:57:33;99014.56;;;12.67;31.25
5753;BME280;2901;42.140;24.760;2023-03-12T14:00:03;99017.94;;;12.71;31.15
5753;BME280;2901;42.140;24.760;2023-03-12T14:02:34;99018.97;;;12.62;31.70
5753;BME280;2901;42.140;24.760;2023-03-12T14:05:06;99026.78;;;12.62;32.94
5753;BME280;2901;42.140;24.760;2023-03-12T14:10:28;99017.53;;;12.51;33.45
5753;BME280;2901;42.140;24.760;2023-03-12T14:13:11;99022.06;;;12.41;32.97
5753;BME280;2901;42.140;24.760;2023-03-12T14:16:17;99026.22;;;12.48;34.08
5753;BME280;2901;42.140;24.760;2023-03-12T14:18:42;99021.41;;;12.70;32.97
5753;BME280;2901;42.140;24.760;2023-03-12T14:21:13;99035.84;;;12.83;32.29
5753;BME280;2901;42.140;24.760;2023-03-12T14:23:52;99023.09;;;12.72;31.92
5753;BME280;2901;42.140;24.760;2023-03-12T14:26:23;99030.22;;;12.63;32.15
5753;BME280;2901;42.140;24.760;2023-03-12T14:29:01;99033.53;;;12.71;32.85
5753;BME280;2901;42.140;24.760;2023-03-12T14:31:30;99033.47;;;12.72;32.64
5753;BME280;2901;42.140;24.760;2023-03-12T14:39:50;99046.91;;;12.91;32.20
5753;BME280;2901;42.140;24.760;2023-03-12T14:42:32;99044.38;;;12.88;32.01
5753;BME280;2901;42.140;24.760;2023-03-12T14:47:39;99034.91;;;12.85;32.45
5753;BME280;2901;42.140;24.760;2023-03-12T14:50:05;99035.91;;;12.80;32.78
5753;BME280;2901;42.140;24.760;2023-03-12T14:52:31;99040.22;;;12.81;32.71
5753;BME280;2901;42.140;24.760;2023-03-12T14:57:25;99044.88;;;12.67;32.20
5753;BME280;2901;42.140;24.760;2023-03-12T14:59:59;99052.81;;;12.61;32.93
5753;BME280;2901;42.140;24.760;2023-03-12T15:02:26;99058.09;;;12.56;32.26
5753;BME280;2901;42.140;24.760;2023-03-12T15:04:54;99053.75;;;12.57;32.55
5753;BME280;2901;42.140;24.760;2023-03-12T15:07:25;99057.94;;;12.62;32.96
5753;BME280;2901;42.140;24.760;2023-03-12T15:09:52;99065.53;;;12.71;32.52
5753;BME280;2901;42.140;24.760;2023-03-12T15:12:24;99061.16;;;12.73;32.90
5753;BME280;2901;42.140;24.760;2023-03-12T15:14:53;99071.72;;;12.66;32.48
5753;BME280;2901;42.140;24.760;2023-03-12T15:17:29;99075.25;;;12.63;32.58
5753;BME280;2901;42.140;24.760;2023-03-12T15:19:55;99078.13;;;12.49;33.01
5753;BME280;2901;42.140;24.760;2023-03-12T15:22:23;99082.63;;;12.41;32.68